Time;durP1;ratioP1;P1;durP2;ratioP2;P2;SDS_P1;SDS_P2;PMS_P1;PMS_P2;Temp;Humidity;BMP_temperature;BMP_pressure;BME280_temperature;BME280_humidity;BME280_pressure;Samples;Min_cycle;Max_cycle;Signal;HPM_P1;HPM_P2
2022/04/20 00:00:34;;;;;;;3.40;2.33;;;7.50;99.90;;;;;;5114247;27;20043;-81
2022/04/20 00:03:01;;;;;;;5.30;2.15;;;7.50;99.90;;;;;;5104258;27;20070;-81
2022/04/20 00:05:26;;;;;;;2.42;1.73;;;7.50;99.90;;;;;;5117470;27;20039;-82
2022/04/20 00:07:52;;;;;;;2.40;2.10;;;7.40;99.90;;;;;;5099552;27;20051;-82
2022/04/20 00:10:18;;;;;;;2.80;2.42;;;7.30;99.90;;;;;;5123136;27;20035;-82
2022/04/20 00:12:44;;;;;;;2.83;1.83;;;7.30;99.90;;;;;;5092789;28;20093;-82
2022/04/20 00:15:09;;;;;;;3.10;2.35;;;7.20;99.90;;;;;;5111123;28;20386;-82
2022/04/20 00:17:35;;;;;;;3.75;2.70;;;7.10;99.90;;;;;;5092426;28;20120;-82
2022/04/20 00:20:01;;;;;;;3.35;2.75;;;7.10;99.90;;;;;;5111328;28;20402;-81
2022/04/20 00:22:26;;;;;;;2.90;2.35;;;7.00;99.90;;;;;;5121597;28;20043;-82
2022/04/20 00:24:52;;;;;;;5.43;2.45;;;6.90;99.90;;;;;;5102228;28;20043;-81
2022/04/20 00:27:17;;;;;;;3.08;2.47;;;6.90;99.90;;;;;;5106379;28;20040;-82
2022/04/20 00:29:43;;;;;;;5.03;2.03;;;6.80;99.90;;;;;;5111480;28;20055;-81
2022/04/20 00:32:08;;;;;;;9.43;2.65;;;6.80;99.90;;;;;;5110558;28;20039;-82
2022/04/20 00:34:34;;;;;;;17.20;2.65;;;6.80;99.90;;;;;;5093044;28;20405;-81
2022/04/20 00:37:00;;;;;;;2.30;2.08;;;6.70;99.90;;;;;;5110969;28;20453;-81
2022/04/20 00:39:25;;;;;;;4.18;2.47;;;6.70;99.90;;;;;;5113592;28;20032;-82
2022/04/20 00:41:52;;;;;;;4.10;1.90;;;6.60;99.90;;;;;;5102055;27;20432;-82
2022/04/20 00:44:19;;;;;;;2.90;2.33;;;6.60;99.90;;;;;;5100588;27;20039;-83
2022/04/20 00:46:47;;;;;;;2.95;2.25;;;6.60;99.90;;;;;;5125619;27;20047;-82
2022/04/20 00:49:14;;;;;;;4.03;2.50;;;6.50;99.90;;;;;;5123495;27;20043;-82
2022/04/20 00:52:09;;;;;;;3.20;2.67;;;6.50;99.90;;;;;;5124492;27;20051;-82
2022/04/20 00:54:34;;;;;;;3.30;3.00;;;6.50;99.90;;;;;;5086106;28;20827;-82
2022/04/20 00:57:00;;;;;;;3.20;2.17;;;6.50;99.90;;;;;;5122805;27;20074;-82
2022/04/20 00:59:28;;;;;;;6.07;2.58;;;6.40;99.90;;;;;;5101069;27;20118;-82
2022/04/20 01:01:54;;;;;;;2.22;1.90;;;6.40;99.90;;;;;;5122024;27;20054;-82
2022/04/20 01:04:20;;;;;;;9.38;2.83;;;6.40;99.90;;;;;;5107045;28;20061;-82
2022/04/20 01:06:45;;;;;;;4.63;2.60;;;6.40;99.90;;;;;;5111571;27;20038;-82
2022/04/20 01:09:11;;;;;;;4.03;2.97;;;6.40;99.90;;;;;;5125878;27;20100;-82
2022/04/20 01:11:38;;;;;;;5.18;2.65;;;6.40;99.90;;;;;;5126202;27;20133;-81
2022/04/20 01:14:04;;;;;;;3.67;2.47;;;6.40;99.90;;;;;;5127046;27;20148;-82
2022/04/20 01:16:30;;;;;;;2.30;2.10;;;6.40;99.90;;;;;;5120984;27;20054;-82
2022/04/20 01:18:55;;;;;;;3.97;2.88;;;6.30;99.90;;;;;;5124729;27;20043;-82
2022/04/20 01:21:23;;;;;;;3.50;2.92;;;6.30;99.90;;;;;;5115095;28;20044;-82
2022/04/20 01:23:49;;;;;;;5.03;2.63;;;6.30;99.90;;;;;;5113539;27;20043;-82
2022/04/20 01:26:15;;;;;;;2.38;2.17;;;6.30;99.90;;;;;;5132776;27;20050;-82
2022/04/20 01:28:44;;;;;;;4.25;2.83;;;6.30;99.90;;;;;;5123524;27;20071;-82
2022/04/20 01:31:14;;;;;;;5.10;3.08;;;6.30;99.90;;;;;;5124731;27;20577;-82
2022/04/20 01:33:40;;;;;;;3.75;2.75;;;6.20;99.90;;;;;;5104123;27;20070;-81
2022/04/20 01:36:06;;;;;;;3.55;2.67;;;6.20;99.90;;;;;;5111792;27;20047;-82
2022/04/20 01:38:31;;;;;;;3.58;2.40;;;6.20;99.90;;;;;;5120276;27;20042;-81
2022/04/20 01:40:57;;;;;;;8.35;2.65;;;6.20;99.90;;;;;;5120299;27;20046;-82
2022/04/20 01:43:22;;;;;;;6.38;3.63;;;6.10;99.90;;;;;;5098120;27;20039;-82
2022/04/20 01:45:48;;;;;;;2.58;2.38;;;6.10;99.90;;;;;;5127127;27;20126;-82
2022/04/20 01:48:14;;;;;;;4.10;2.63;;;6.10;99.90;;;;;;5125453;27;20052;-82
2022/04/20 01:51:46;;;;;;;4.40;2.80;;;6.10;99.90;;;;;;5114395;28;20062;-82
2022/04/20 01:53:25;;;;;;;3.17;2.38;;;6.10;99.90;;;;;;5096038;28;20066;-81
2022/04/20 01:55:50;;;;;;;2.72;2.20;;;6.00;99.90;;;;;;5112124;27;20424;-81
2022/04/20 01:58:16;;;;;;;3.60;2.40;;;6.00;99.90;;;;;;5123622;27;20047;-82
2022/04/20 02:00:42;;;;;;;3.88;2.70;;;6.00;99.90;;;;;;5115447;27;20497;-81
2022/04/20 02:03:07;;;;;;;3.65;3.00;;;6.00;99.90;;;;;;5106040;27;20043;-81
2022/04/20 02:05:33;;;;;;;3.17;2.58;;;6.00;99.90;;;;;;5121198;27;20539;-81
2022/04/20 02:07:58;;;;;;;2.78;2.42;;;6.00;99.90;;;;;;5122841;27;20036;-81
2022/04/20 02:10:24;;;;;;;2.85;2.30;;;6.00;99.90;;;;;;5101989;28;20089;-82
2022/04/20 02:12:50;;;;;;;2.75;2.55;;;6.00;99.90;;;;;;5100958;27;20073;-81
2022/04/20 02:15:16;;;;;;;4.05;2.70;;;6.00;99.90;;;;;;5116125;27;20481;-81
2022/04/20 02:17:41;;;;;;;3.95;2.50;;;6.00;99.90;;;;;;5133809;27;20039;-82
2022/04/20 02:20:08;;;;;;;3.50;2.25;;;6.00;99.90;;;;;;5119304;27;20039;-82
2022/04/20 02:22:34;;;;;;;2.97;2.40;;;6.00;99.90;;;;;;5109362;27;20058;-81
2022/04/20 02:24:59;;;;;;;3.58;2.53;;;5.90;99.90;;;;;;5119737;27;20043;-82
2022/04/20 02:27:26;;;;;;;3.65;2.55;;;5.90;99.90;;;;;;5106157;27;20047;-82
2022/04/20 02:29:52;;;;;;;3.20;2.90;;;6.00;99.90;;;;;;5119024;27;20047;-81
2022/04/20 02:32:17;;;;;;;3.80;3.00;;;5.90;99.90;;;;;;5108528;27;20181;-81
2022/04/20 02:34:43;;;;;;;3.65;2.72;;;5.90;99.90;;;;;;5103679;27;20069;-82
2022/04/20 02:37:09;;;;;;;3.00;2.70;;;5.90;99.90;;;;;;5109458;27;20051;-82
2022/04/20 02:39:36;;;;;;;3.67;2.80;;;5.90;99.90;;;;;;5115935;27;20091;-81
2022/04/20 02:42:03;;;;;;;5.75;3.25;;;5.90;99.90;;;;;;5120552;27;20401;-82
2022/04/20 02:44:28;;;;;;;5.35;3.33;;;5.80;99.90;;;;;;5094311;28;20461;-82
2022/04/20 02:46:54;;;;;;;4.47;2.75;;;5.80;99.90;;;;;;5095191;28;20058;-82
2022/04/20 02:49:21;;;;;;;4.82;3.22;;;5.80;99.90;;;;;;5113293;28;20406;-82
2022/04/20 02:51:47;;;;;;;3.28;2.45;;;5.80;99.90;;;;;;5112266;28;20051;-81
2022/04/20 02:54:12;;;;;;;3.95;2.53;;;5.80;99.90;;;;;;5112837;28;20039;-81
2022/04/20 02:56:38;;;;;;;3.22;2.90;;;5.80;99.90;;;;;;5112988;28;20039;-82
2022/04/20 02:59:03;;;;;;;4.88;4.10;;;5.80;99.90;;;;;;5093543;28;20079;-81
2022/04/20 03:01:30;;;;;;;4.47;3.10;;;5.80;99.90;;;;;;5094850;28;20089;-81
2022/04/20 03:03:57;;;;;;;3.83;3.03;;;5.80;99.90;;;;;;5112849;28;20122;-81
2022/04/20 03:06:22;;;;;;;4.07;3.30;;;5.70;99.90;;;;;;5111674;28;20081;-81
2022/04/20 03:08:48;;;;;;;4.85;3.47;;;5.80;99.90;;;;;;5094403;28;20047;-82
2022/04/20 03:11:14;;;;;;;4.55;3.38;;;5.70;99.90;;;;;;5112441;28;20046;-81
2022/04/20 03:13:39;;;;;;;5.57;3.28;;;5.70;99.90;;;;;;5094074;28;20052;-82
2022/04/20 03:16:05;;;;;;;4.63;3.40;;;5.70;99.90;;;;;;5112681;28;20035;-81
2022/04/20 03:18:32;;;;;;;3.75;3.13;;;5.60;99.90;;;;;;5094479;28;20555;-81
2022/04/20 03:21:02;;;;;;;5.07;3.63;;;5.60;99.90;;;;;;5112033;28;20050;-81
2022/04/20 03:23:29;;;;;;;4.13;3.35;;;5.60;99.90;;;;;;5112574;28;20048;-81
2022/04/20 03:25:54;;;;;;;7.68;3.55;;;5.60;99.90;;;;;;5093599;28;20055;-81
2022/04/20 03:28:20;;;;;;;5.32;3.10;;;5.60;99.90;;;;;;5112621;28;20069;-81
2022/04/20 03:30:47;;;;;;;4.32;3.50;;;5.50;99.90;;;;;;5094069;28;20040;-81
2022/04/20 03:33:13;;;;;;;3.55;3.25;;;5.50;99.90;;;;;;5113015;28;20083;-81
2022/04/20 03:35:39;;;;;;;5.07;3.22;;;5.40;99.90;;;;;;5113798;28;20079;-81
2022/04/20 03:38:08;;;;;;;3.63;3.15;;;5.50;99.90;;;;;;5094978;28;20089;-81
2022/04/20 03:40:34;;;;;;;4.47;3.05;;;5.40;99.90;;;;;;5113382;28;20032;-82
2022/04/20 03:43:01;;;;;;;4.55;2.85;;;5.40;99.90;;;;;;5113642;28;20039;-82
2022/04/20 03:45:26;;;;;;;6.15;3.10;;;5.30;99.90;;;;;;5114039;28;20074;-82
2022/04/20 03:47:52;;;;;;;3.38;3.08;;;5.30;99.90;;;;;;5114317;28;20036;-81
2022/04/20 03:50:18;;;;;;;6.45;3.53;;;5.30;99.90;;;;;;5096373;28;20043;-82
2022/04/20 03:52:44;;;;;;;5.18;2.67;;;5.20;99.90;;;;;;5095163;28;20499;-81
2022/04/20 03:55:10;;;;;;;3.80;3.15;;;5.20;99.90;;;;;;5113445;28;20078;-81
2022/04/20 03:57:35;;;;;;;4.28;3.03;;;5.20;99.90;;;;;;5095222;28;20065;-81
2022/04/20 04:00:03;;;;;;;5.90;3.28;;;5.10;99.90;;;;;;5112907;28;20156;-81
2022/04/20 04:02:29;;;;;;;3.67;3.25;;;5.70;99.90;;;;;;5093239;28;20051;-81
2022/04/20 04:04:55;;;;;;;3.05;2.70;;;5.10;99.90;;;;;;5111717;28;20069;-81
2022/04/20 04:07:20;;;;;;;3.30;3.00;;;5.10;99.90;;;;;;5096494;28;20043;-81
2022/04/20 04:09:46;;;;;;;7.05;3.13;;;5.10;99.90;;;;;;5122611;27;20043;-81
2022/04/20 04:12:11;;;;;;;5.90;3.55;;;5.00;99.90;;;;;;5113741;27;20043;-81
2022/04/20 04:14:41;;;;;;;3.40;2.97;;;5.10;99.90;;;;;;5094172;28;20040;-81
2022/04/20 04:17:08;;;;;;;2.85;2.60;;;5.10;99.90;;;;;;5112829;27;20050;-81
2022/04/20 04:19:35;;;;;;;5.38;2.78;;;5.10;99.90;;;;;;5102074;28;20085;-80
2022/04/20 04:22:05;;;;;;;4.78;3.08;;;5.10;99.90;;;;;;5118296;27;20047;-81
2022/04/20 04:24:40;;;;;;;3.40;3.10;;;5.10;99.90;;;;;;5113072;28;20055;-81
2022/04/20 04:27:09;;;;;;;3.58;2.70;;;5.10;99.90;;;;;;5132234;28;20457;-81
2022/04/20 04:29:35;;;;;;;4.80;3.00;;;5.10;99.90;;;;;;5131473;28;20047;-81
2022/04/20 04:32:01;;;;;;;3.17;2.53;;;5.10;99.90;;;;;;5132257;28;20053;-81
2022/04/20 04:34:27;;;;;;;4.55;3.22;;;5.10;99.90;;;;;;5107726;28;20501;-81
2022/04/20 04:36:54;;;;;;;3.67;2.60;;;5.10;99.90;;;;;;5104770;28;20047;-81
2022/04/20 04:39:23;;;;;;;3.80;3.20;;;5.10;99.90;;;;;;5122792;28;20055;-81
2022/04/20 04:41:50;;;;;;;3.53;2.67;;;5.10;99.90;;;;;;5132169;28;20078;-81
2022/04/20 04:44:17;;;;;;;5.97;3.75;;;5.10;99.90;;;;;;5112867;28;20047;-81
2022/04/20 04:49:27;;;;;;;4.15;3.00;;;5.00;99.90;;;;;;5116359;28;20055;-82
2022/04/20 04:51:53;;;;;;;4.93;2.88;;;5.00;99.90;;;;;;5110273;28;20127;-81
2022/04/20 04:54:22;;;;;;;4.07;2.65;;;5.00;99.90;;;;;;5111625;28;20036;-81
2022/04/20 04:56:47;;;;;;;4.43;2.78;;;5.10;99.90;;;;;;5115030;28;20047;-81
2022/04/20 04:59:13;;;;;;;3.35;2.58;;;5.10;99.90;;;;;;5096288;28;20055;-81
2022/04/20 05:01:39;;;;;;;3.65;2.83;;;5.10;99.90;;;;;;5092863;28;20079;-81
2022/04/20 05:04:05;;;;;;;4.13;2.53;;;5.10;99.90;;;;;;5092572;28;20051;-81
2022/04/20 05:06:31;;;;;;;3.42;2.67;;;5.10;99.90;;;;;;5092367;28;20047;-81
2022/04/20 05:08:57;;;;;;;4.68;2.60;;;5.10;99.90;;;;;;5092444;28;20051;-81
2022/04/20 05:11:22;;;;;;;3.65;3.08;;;5.10;99.90;;;;;;5094870;28;20070;-81
2022/04/20 05:13:48;;;;;;;3.25;2.95;;;5.10;99.90;;;;;;5111072;28;20049;-81
2022/04/20 05:16:13;;;;;;;4.43;3.42;;;5.20;99.90;;;;;;5123681;28;20128;-81
2022/04/20 05:18:39;;;;;;;4.60;2.90;;;5.10;99.90;;;;;;5092290;28;20074;-81
2022/04/20 05:21:04;;;;;;;5.30;2.58;;;5.20;99.90;;;;;;5110836;28;20043;-81
2022/04/20 05:23:30;;;;;;;8.52;3.17;;;5.20;99.90;;;;;;5107675;28;20047;-81
2022/04/20 05:25:56;;;;;;;3.55;2.47;;;5.30;99.90;;;;;;5129191;28;20496;-81
2022/04/20 05:28:22;;;;;;;4.18;2.95;;;5.30;99.90;;;;;;5092399;28;20035;-81
2022/04/20 05:30:47;;;;;;;3.67;2.70;;;5.40;99.90;;;;;;5114425;28;20081;-82
2022/04/20 05:33:13;;;;;;;3.03;2.58;;;5.50;99.90;;;;;;5107092;27;20047;-81
2022/04/20 05:35:39;;;;;;;4.47;3.25;;;5.50;99.90;;;;;;5134923;27;20045;-81
2022/04/20 05:43:33;;;;;;;4.13;2.60;;;5.80;99.90;;;;;;5100212;27;20047;-81
2022/04/20 05:45:58;;;;;;;8.23;3.45;;;5.90;99.90;;;;;;5123220;27;20035;-81
2022/04/20 05:48:24;;;;;;;4.35;3.05;;;6.00;99.90;;;;;;5108494;28;20052;-81
2022/04/20 05:50:50;;;;;;;4.80;3.15;;;6.10;99.90;;;;;;5100400;28;20048;-82
2022/04/20 05:53:15;;;;;;;3.55;3.25;;;6.10;99.90;;;;;;5108325;27;20052;-81
2022/04/20 05:55:41;;;;;;;6.47;3.17;;;6.20;99.90;;;;;;5105568;28;20478;-81
2022/04/20 05:58:06;;;;;;;5.75;3.40;;;6.30;99.90;;;;;;5126805;27;20043;-82
2022/04/20 06:00:32;;;;;;;3.83;3.40;;;6.30;99.90;;;;;;5106246;28;20395;-81
2022/04/20 06:02:58;;;;;;;5.53;3.30;;;6.40;99.90;;;;;;5103536;27;20043;-82
2022/04/20 06:05:23;;;;;;;6.72;2.97;;;6.50;99.90;;;;;;5116158;27;20128;-81
2022/04/20 06:07:49;;;;;;;8.93;2.92;;;6.50;99.90;;;;;;5115544;27;20043;-81
2022/04/20 06:10:15;;;;;;;3.30;3.00;;;6.60;99.90;;;;;;5115079;27;20056;-82
2022/04/20 06:12:41;;;;;;;3.35;2.90;;;6.60;99.90;;;;;;5113772;28;20051;-82
2022/04/20 06:15:07;;;;;;;4.00;3.55;;;6.70;99.90;;;;;;5096807;27;20038;-81
2022/04/20 06:17:33;;;;;;;6.63;3.78;;;6.80;99.90;;;;;;5102500;27;20513;-81
2022/04/20 06:19:58;;;;;;;3.88;3.47;;;6.80;99.90;;;;;;5104641;28;20069;-82
2022/04/20 06:22:24;;;;;;;4.35;3.10;;;6.90;99.90;;;;;;5111161;27;20082;-81
2022/04/20 06:24:50;;;;;;;7.13;4.57;;;7.00;99.90;;;;;;5115410;27;20058;-81
2022/04/20 06:27:16;;;;;;;5.53;3.42;;;7.00;99.90;;;;;;5124904;27;20044;-81
2022/04/20 06:29:42;;;;;;;3.75;3.33;;;7.10;99.90;;;;;;5109096;28;20058;-81
2022/04/20 06:32:08;;;;;;;5.50;3.55;;;7.10;99.90;;;;;;5116907;27;20050;-81
2022/04/20 06:34:33;;;;;;;5.78;3.90;;;7.20;99.90;;;;;;5092147;27;20051;-81
2022/04/20 06:36:59;;;;;;;4.65;3.83;;;7.30;99.90;;;;;;5115972;27;20075;-81
2022/04/20 06:39:24;;;;;;;9.25;4.25;;;7.40;99.90;;;;;;5096182;27;20541;-81
2022/04/20 06:41:51;;;;;;;4.88;3.47;;;7.50;99.90;;;;;;5128731;27;20036;-81
2022/04/20 06:44:20;;;;;;;6.15;4.55;;;7.60;99.90;;;;;;5094281;28;20123;-81
2022/04/20 06:46:45;;;;;;;3.97;3.05;;;7.70;99.90;;;;;;5104516;28;20059;-82
2022/04/20 06:49:11;;;;;;;11.55;4.22;;;7.70;99.90;;;;;;5112676;28;20478;-81
2022/04/20 06:59:51;;;;;;;5.85;3.80;;;8.10;99.90;;;;;;5118929;27;20043;-82
2022/04/20 07:02:17;;;;;;;4.63;3.50;;;8.30;99.90;;;;;;5087380;28;20044;-81
2022/04/20 07:04:43;;;;;;;6.13;3.63;;;8.40;99.90;;;;;;5111060;28;20517;-81
2022/04/20 07:07:08;;;;;;;5.65;4.40;;;8.50;99.90;;;;;;5132246;27;20081;-82
2022/04/20 07:09:34;;;;;;;4.78;4.35;;;8.60;99.90;;;;;;5112306;27;20043;-81
2022/04/20 07:12:00;;;;;;;5.70;3.72;;;8.70;99.90;;;;;;5105049;28;20051;-82
2022/04/20 07:14:25;;;;;;;5.32;3.90;;;8.90;99.90;;;;;;5102301;28;20127;-82
2022/04/20 07:16:51;;;;;;;4.70;3.70;;;9.00;99.90;;;;;;5075165;28;20067;-82
2022/04/20 07:19:16;;;;;;;5.88;3.45;;;9.10;99.90;;;;;;5112195;28;20043;-87
2022/04/20 07:21:42;;;;;;;5.10;3.35;;;9.20;99.90;;;;;;5094692;28;20115;-85
2022/04/20 07:24:07;;;;;;;7.20;3.80;;;9.30;99.90;;;;;;5094762;28;20051;-83
2022/04/20 07:26:33;;;;;;;6.13;3.15;;;9.40;99.90;;;;;;5088844;28;20619;-85
2022/04/20 07:28:58;;;;;;;5.47;3.30;;;9.50;99.90;;;;;;5099767;28;20134;-86
2022/04/20 07:31:24;;;;;;;5.47;3.35;;;9.60;99.90;;;;;;5109533;28;20084;-83
2022/04/20 07:33:49;;;;;;;12.45;4.00;;;9.70;99.90;;;;;;5095163;28;20051;-84
2022/04/20 07:36:15;;;;;;;4.45;3.28;;;9.80;99.90;;;;;;5079197;28;20059;-85
2022/04/20 07:38:41;;;;;;;6.53;2.75;;;9.80;99.90;;;;;;5092234;28;20055;-84
2022/04/20 07:41:06;;;;;;;5.85;2.65;;;9.90;99.90;;;;;;5091681;28;20040;-85
2022/04/20 07:43:32;;;;;;;4.50;3.42;;;10.10;99.90;;;;;;5073873;28;20165;-83
2022/04/20 07:45:58;;;;;;;4.28;3.00;;;10.10;99.90;;;;;;5093911;28;20559;-84
2022/04/20 07:48:23;;;;;;;6.72;3.13;;;10.20;99.90;;;;;;5094140;28;20055;-81
2022/04/20 07:50:49;;;;;;;4.38;2.78;;;10.30;99.90;;;;;;5103682;27;20043;-82
2022/04/20 07:53:15;;;;;;;3.20;2.53;;;10.40;99.90;;;;;;5114970;27;20055;-81
2022/04/20 07:55:46;;;;;;;3.22;2.92;;;10.50;99.90;;;;;;5096094;28;20108;-78
2022/04/20 07:58:12;;;;;;;3.55;2.60;;;11.80;99.90;;;;;;5101289;28;20052;-79
2022/04/20 08:00:37;;;;;;;4.03;3.35;;;10.70;99.90;;;;;;5118568;27;20027;-79
2022/04/20 08:03:15;;;;;;;3.60;2.88;;;10.80;99.90;;;;;;5102403;27;20088;-77
2022/04/20 08:05:42;;;;;;;4.32;2.65;;;10.90;99.90;;;;;;5108784;27;20031;-77
2022/04/20 08:08:09;;;;;;;4.93;2.85;;;10.90;99.90;;;;;;5098604;27;20046;-77
2022/04/20 08:10:35;;;;;;;4.95;2.67;;;11.10;99.90;;;;;;5119123;27;20119;-79
2022/04/20 08:14:09;;;;;;;3.55;2.63;;;11.10;99.90;;;;;;5086607;27;20069;-72
2022/04/20 08:15:47;;;;;;;9.55;2.80;;;11.20;99.90;;;;;;5113526;27;20132;-74
2022/04/20 08:18:12;;;;;;;3.38;2.35;;;11.30;99.90;;;;;;5106574;28;20459;-72
2022/04/20 08:20:38;;;;;;;3.50;2.60;;;11.50;99.90;;;;;;5116097;28;20043;-76
2022/04/20 08:23:03;;;;;;;2.72;2.53;;;11.60;99.90;;;;;;5098405;28;20131;-72
2022/04/20 08:25:29;;;;;;;2.63;2.42;;;11.60;99.90;;;;;;5084284;28;20540;-72
2022/04/20 08:27:54;;;;;;;2.97;2.15;;;11.70;99.90;;;;;;5072269;28;20147;-74
2022/04/20 08:30:20;;;;;;;2.63;2.42;;;11.80;99.90;;;;;;5112475;28;20079;-75
2022/04/20 08:32:46;;;;;;;2.53;2.15;;;11.80;99.90;;;;;;5112204;28;20078;-75
2022/04/20 08:35:11;;;;;;;1.85;1.75;;;11.90;99.90;;;;;;5109484;28;20075;-75
2022/04/20 08:37:37;;;;;;;3.10;2.22;;;12.00;99.90;;;;;;5091773;28;20039;-75
2022/04/20 08:40:03;;;;;;;1.92;1.70;;;12.10;99.90;;;;;;5090495;28;20039;-77
2022/04/20 08:42:33;;;;;;;2.95;1.98;;;12.20;99.90;;;;;;5083112;28;20051;-78
2022/04/20 08:45:02;;;;;;;1.80;1.58;;;12.30;99.90;;;;;;5081332;28;20058;-77
2022/04/20 08:47:34;;;;;;;2.95;1.48;;;12.40;99.10;;;;;;5102486;28;20111;-77
2022/04/20 08:50:01;;;;;;;1.85;1.58;;;12.60;95.80;;;;;;5085408;28;20040;-78
2022/04/20 08:52:37;;;;;;;2.75;1.48;;;12.60;95.60;;;;;;5091941;28;20143;-77
2022/04/20 08:55:16;;;;;;;1.83;1.25;;;12.60;93.20;;;;;;5091044;28;20054;-77
2022/04/20 08:57:49;;;;;;;4.45;1.65;;;12.70;92.00;;;;;;5092318;28;20122;-77
2022/04/20 09:00:21;;;;;;;2.40;1.55;;;12.70;91.00;;;;;;5110964;28;20047;-77
2022/04/20 09:02:52;;;;;;;1.73;1.42;;;12.80;91.40;;;;;;5077609;28;20071;-77
2022/04/20 09:05:18;;;;;;;2.25;0.88;;;12.80;92.50;;;;;;5094160;28;20065;-75
2022/04/20 09:07:45;;;;;;;2.10;1.25;;;13.00;90.80;;;;;;5114375;28;20052;-74
2022/04/20 09:10:10;;;;;;;2.58;1.10;;;12.90;74.30;;;;;;5088368;28;20436;-75
2022/04/20 09:12:44;;;;;;;3.22;1.00;;;13.00;69.50;;;;;;5094020;28;20378;-74
2022/04/20 09:15:27;;;;;;;1.67;1.15;;;13.00;66.50;;;;;;5094334;28;20410;-76
2022/04/20 09:17:53;;;;;;;1.65;1.13;;;13.10;69.10;;;;;;5093160;28;20388;-76
2022/04/20 09:20:20;;;;;;;1.45;0.90;;;13.10;67.40;;;;;;5094308;28;20055;-76
2022/04/20 09:22:57;;;;;;;1.92;1.02;;;13.10;68.60;;;;;;5094367;28;20040;-76
2022/04/20 09:25:33;;;;;;;3.45;1.40;;;13.90;67.20;;;;;;5075036;28;20044;-75
2022/04/20 09:27:59;;;;;;;2.78;0.82;;;13.40;65.70;;;;;;5093990;28;20047;-76
2022/04/20 09:30:24;;;;;;;2.35;1.08;;;13.40;66.70;;;;;;5075737;28;20056;-73
2022/04/20 09:32:50;;;;;;;1.63;1.00;;;13.50;65.70;;;;;;5078072;27;20055;-74
2022/04/20 09:35:19;;;;;;;1.13;0.95;;;13.60;66.20;;;;;;5105833;27;20035;-70
2022/04/20 09:37:45;;;;;;;1.00;0.73;;;13.70;67.10;;;;;;5120403;27;20062;-72
2022/04/20 09:40:13;;;;;;;1.85;1.10;;;13.70;66.10;;;;;;5125634;27;20035;-71
2022/04/20 09:43:02;;;;;;;1.02;0.80;;;13.80;65.70;;;;;;5111309;27;20616;-72
2022/04/20 09:45:30;;;;;;;3.15;1.25;;;13.90;62.00;;;;;;5099879;28;20397;-71
2022/04/20 09:50:46;;;;;;;1.90;1.10;;;13.90;62.80;;;;;;5058961;28;20055;-72
2022/04/20 09:53:14;;;;;;;1.30;1.00;;;13.90;62.40;;;;;;5086710;28;20052;-71
2022/04/20 09:55:41;;;;;;;1.23;1.10;;;13.90;62.50;;;;;;5081271;28;20050;-72
2022/04/20 09:58:18;;;;;;;1.65;0.80;;;14.00;62.30;;;;;;5080466;28;20062;-72
2022/04/20 10:00:51;;;;;;;1.95;1.25;;;14.00;61.20;;;;;;5086120;28;20505;-72
2022/04/20 10:03:29;;;;;;;1.45;0.90;;;14.00;60.00;;;;;;5090772;28;20047;-71
2022/04/20 10:05:59;;;;;;;1.48;0.95;;;14.10;58.80;;;;;;5082633;28;20055;-72
2022/04/20 10:08:29;;;;;;;0.93;0.80;;;14.10;59.40;;;;;;5089852;28;20074;-71
2022/04/20 10:10:55;;;;;;;2.90;1.05;;;14.10;58.30;;;;;;5099040;28;20044;-74
2022/04/20 10:13:22;;;;;;;2.55;0.95;;;14.10;59.80;;;;;;5083789;28;20079;-73
2022/04/20 10:16:05;;;;;;;4.13;1.00;;;14.10;59.60;;;;;;5102692;28;20046;-70
2022/04/20 10:18:35;;;;;;;4.63;1.17;;;14.20;59.80;;;;;;5087810;28;20047;-72
2022/04/20 10:21:02;;;;;;;0.70;0.70;;;14.20;58.60;;;;;;5075736;28;20044;-75
2022/04/20 10:23:29;;;;;;;1.65;1.08;;;14.30;57.80;;;;;;5081077;28;20126;-73
2022/04/20 10:25:56;;;;;;;1.17;0.90;;;14.30;57.20;;;;;;5086688;28;20052;-71
2022/04/20 10:28:33;;;;;;;1.77;0.90;;;14.30;58.00;;;;;;5106369;28;20044;-70
2022/04/20 10:31:15;;;;;;;1.20;0.70;;;14.40;57.50;;;;;;5089895;28;20051;-71
2022/04/20 10:33:42;;;;;;;1.63;1.10;;;14.40;58.00;;;;;;5104297;28;20040;-71
2022/04/20 10:36:12;;;;;;;3.28;0.82;;;14.50;59.20;;;;;;5072030;28;20055;-70
2022/04/20 10:38:38;;;;;;;1.73;1.05;;;14.70;60.30;;;;;;5082610;28;20043;-70
2022/04/20 10:41:11;;;;;;;3.38;1.00;;;14.70;57.40;;;;;;5092271;28;20075;-70
2022/04/20 10:43:42;;;;;;;4.35;1.13;;;14.70;57.10;;;;;;5082572;28;20052;-70
2022/04/20 10:46:15;;;;;;;0.90;0.88;;;14.70;56.80;;;;;;5097414;28;20119;-70
2022/04/20 10:48:58;;;;;;;1.25;1.15;;;14.80;57.60;;;;;;5098497;28;20039;-70
2022/04/20 10:51:30;;;;;;;1.67;1.20;;;14.80;57.30;;;;;;5081599;28;20091;-70
2022/04/20 10:54:26;;;;;;;1.85;1.15;;;14.80;58.20;;;;;;5079044;28;20106;-70
2022/04/20 10:57:02;;;;;;;3.75;1.10;;;14.90;54.70;;;;;;5078555;28;20044;-71
2022/04/20 10:59:28;;;;;;;0.85;0.80;;;14.90;57.90;;;;;;5101408;28;20074;-71
2022/04/20 11:02:02;;;;;;;2.08;1.20;;;15.00;56.60;;;;;;5097660;28;20048;-71
2022/04/20 11:04:42;;;;;;;1.98;1.10;;;15.10;57.30;;;;;;5080633;28;20482;-72
2022/04/20 11:07:07;;;;;;;1.60;1.00;;;15.10;56.70;;;;;;5082551;28;20048;-72
2022/04/20 11:09:42;;;;;;;1.60;1.02;;;15.10;58.60;;;;;;5074151;28;20047;-73
2022/04/20 11:21:03;;;;;;;1.15;1.05;;;15.40;56.40;;;;;;5093737;28;20530;-72
2022/04/20 11:24:07;;;;;;;1.15;0.82;;;15.40;57.10;;;;;;5089428;28;20067;-72
2022/04/20 11:26:37;;;;;;;1.45;1.00;;;15.60;57.30;;;;;;5075203;28;20091;-72
2022/04/20 11:29:23;;;;;;;1.45;0.90;;;15.60;57.50;;;;;;5075788;28;20040;-72
2022/04/20 11:31:58;;;;;;;1.02;0.98;;;15.60;57.00;;;;;;5092093;28;20059;-72
2022/04/20 11:34:26;;;;;;;1.45;0.88;;;15.70;57.20;;;;;;5086026;28;20398;-72
2022/04/20 11:36:53;;;;;;;2.20;1.13;;;15.70;57.80;;;;;;5107985;28;20055;-72
2022/04/20 11:39:22;;;;;;;2.08;0.95;;;15.60;56.90;;;;;;5075579;28;20043;-71
2022/04/20 11:41:49;;;;;;;0.95;0.82;;;15.70;57.70;;;;;;5094274;28;20487;-73
2022/04/20 11:44:26;;;;;;;2.05;0.90;;;15.80;57.90;;;;;;5083878;28;20044;-72
2022/04/20 11:46:58;;;;;;;1.13;0.90;;;15.80;57.80;;;;;;5091242;28;20043;-73
2022/04/20 11:49:40;;;;;;;1.48;0.63;;;15.80;58.70;;;;;;5074242;28;20491;-71
2022/04/20 11:52:11;;;;;;;3.35;1.00;;;16.00;59.60;;;;;;5105563;28;20067;-72
2022/04/20 11:54:38;;;;;;;1.73;0.93;;;16.00;58.30;;;;;;5072359;28;20040;-72
2022/04/20 11:57:05;;;;;;;0.88;0.80;;;16.70;57.90;;;;;;5089174;28;20036;-72
2022/04/20 11:59:31;;;;;;;0.90;0.90;;;16.30;57.20;;;;;;5088527;28;20161;-72
2022/04/20 12:01:56;;;;;;;1.33;0.85;;;16.20;57.30;;;;;;5083550;28;20051;-72
2022/04/20 12:04:27;;;;;;;3.13;0.98;;;16.20;56.30;;;;;;5099622;28;20032;-72
2022/04/20 12:06:59;;;;;;;1.73;0.75;;;16.30;56.80;;;;;;5101136;28;20054;-72
2022/04/20 12:09:35;;;;;;;0.70;0.70;;;16.30;56.60;;;;;;5093430;28;20382;-72
2022/04/20 12:12:05;;;;;;;0.85;0.80;;;16.50;57.20;;;;;;5107450;28;20367;-72
2022/04/20 12:14:37;;;;;;;3.22;0.90;;;16.50;54.80;;;;;;5093972;28;20079;-73
2022/04/20 12:17:10;;;;;;;1.35;0.90;;;16.50;56.00;;;;;;5092721;28;20074;-72
2022/04/20 12:19:37;;;;;;;2.15;0.73;;;16.60;57.00;;;;;;5105601;28;20051;-72
2022/04/20 12:22:04;;;;;;;1.98;1.00;;;16.70;57.70;;;;;;5088915;28;20046;-72
2022/04/20 12:24:30;;;;;;;1.83;0.88;;;16.80;56.80;;;;;;5107526;28;20051;-72
2022/04/20 12:26:57;;;;;;;1.85;0.80;;;17.50;55.80;;;;;;5101493;28;20547;-71
2022/04/20 12:29:25;;;;;;;1.52;0.80;;;16.70;55.70;;;;;;5097156;28;20169;-71
2022/04/20 12:31:55;;;;;;;6.25;1.10;;;16.80;57.10;;;;;;5081980;28;20140;-72
2022/04/20 12:34:24;;;;;;;2.05;1.00;;;16.80;56.00;;;;;;5080281;28;20056;-71
2022/04/20 12:37:06;;;;;;;1.70;0.90;;;16.80;55.10;;;;;;5079569;28;20052;-73
2022/04/20 12:39:40;;;;;;;1.08;0.60;;;16.90;57.60;;;;;;5081432;28;20052;-72
2022/04/20 12:42:06;;;;;;;0.95;0.80;;;17.00;56.40;;;;;;5101033;28;20083;-72
2022/04/20 12:44:35;;;;;;;0.95;0.70;;;17.10;56.90;;;;;;5094988;28;20047;-72
2022/04/20 12:47:21;;;;;;;0.60;0.60;;;17.10;56.40;;;;;;5095079;28;20100;-71
2022/04/20 12:50:04;;;;;;;2.33;0.90;;;17.20;55.60;;;;;;5112194;27;20397;-72
2022/04/20 12:52:31;;;;;;;2.35;0.90;;;17.10;53.90;;;;;;5127412;27;20077;-72
2022/04/20 12:54:57;;;;;;;3.42;1.05;;;17.00;54.80;;;;;;5112102;28;20047;-72
2022/04/20 13:03:11;;;;;;;4.97;2.33;;;17.00;58.70;;;;;;5050716;28;20044;-72
2022/04/20 13:05:39;;;;;;;3.33;1.70;;;17.10;60.40;;;;;;5101480;27;20053;-73
2022/04/20 13:08:05;;;;;;;3.42;2.80;;;17.00;60.40;;;;;;5101092;28;20044;-72
2022/04/20 13:10:34;;;;;;;3.33;2.13;;;16.90;61.00;;;;;;5100778;27;20438;-72
2022/04/20 13:13:00;;;;;;;5.03;2.70;;;16.80;61.40;;;;;;5100030;27;20059;-72
2022/04/20 13:15:29;;;;;;;5.07;2.53;;;16.70;60.90;;;;;;5086586;28;20043;-72
2022/04/20 13:17:57;;;;;;;4.43;2.60;;;16.70;60.80;;;;;;5080467;28;20070;-72
2022/04/20 13:20:25;;;;;;;3.10;2.67;;;16.60;61.20;;;;;;5101948;28;20047;-72
2022/04/20 13:22:51;;;;;;;4.32;2.72;;;16.60;62.20;;;;;;5102821;28;20036;-73
2022/04/20 13:28:01;;;;;;;2.75;2.45;;;16.50;62.20;;;;;;5102750;28;20048;-73
2022/04/20 13:30:29;;;;;;;4.30;2.70;;;16.50;61.60;;;;;;5095780;28;20044;-71
2022/04/20 13:32:56;;;;;;;5.10;2.60;;;16.60;61.90;;;;;;5102898;28;20048;-72